Time;durP1;ratioP1;P1;durP2;ratioP2;P2;SDS_P1;SDS_P2;PMS_P1;PMS_P2;Temp;Humidity;BMP_temperature;BMP_pressure;BME280_temperature;BME280_humidity;BME280_pressure;Samples;Min_cycle;Max_cycle;Signal;HPM_P1;HPM_P2
2022/03/06 00:00:46;;;;;;;;;;;;;;;20.51;34.25;101417.84;104553;1309;61331;-83
2022/03/06 00:03:44;;;;;;;;;;;;;;;20.51;34.25;101414.66;104538;1309;72845;-82
2022/03/06 00:06:25;;;;;;;;;;;;;;;20.50;34.25;101419.68;104162;1315;76180;-82
2022/03/06 00:09:00;;;;;;;;;;;;;;;20.51;34.21;101421.09;104176;1316;61315;-82
2022/03/06 00:11:58;;;;;;;;;;;;;;;20.51;34.09;101422.88;104130;1317;60271;-83
2022/03/06 00:14:24;;;;;;;;;;;;;;;20.50;34.14;101423.44;104149;1316;74049;-83
2022/03/06 00:17:13;;;;;;;;;;;;;;;20.50;34.10;101419.73;102978;1325;73681;-85
2022/03/06 00:19:54;;;;;;;;;;;;;;;;;;;;;
2022/03/06 00:22:35;;;;;;;;;;;;;;;20.49;34.10;101414.73;103001;1323;61205;-84
2022/03/06 00:25:04;;;;;;;;;;;;;;;20.49;34.09;101410.08;102798;1325;72904;-84
2022/03/06 00:28:10;;;;;;;;;;;;;;;20.49;34.20;101402.57;102842;1325;76337;-82
2022/03/06 00:30:46;;;;;;;;;;;;;;;20.49;34.16;101399.20;102995;1325;61532;-83
2022/03/06 00:33:24;;;;;;;;;;;;;;;20.49;34.12;101399.39;102842;1325;61189;-86
2022/03/06 00:36:24;;;;;;;;;;;;;;;20.49;34.02;101400.07;103083;1323;72656;-82
2022/03/06 00:39:09;;;;;;;;;;;;;;;20.49;34.06;101403.67;103077;1323;76033;-82
2022/03/06 00:42:06;;;;;;;;;;;;;;;20.49;34.12;101402.92;103102;1323;61188;-82
2022/03/06 00:44:54;;;;;;;;;;;;;;;20.49;34.07;101401.71;103996;1314;61153;-86
2022/03/06 00:47:48;;;;;;;;;;;;;;;20.49;33.99;101401.70;103526;1320;71279;-86
2022/03/06 00:50:34;;;;;;;;;;;;;;;20.49;34.08;101398.99;103332;1320;74631;-82
2022/03/06 00:53:20;;;;;;;;;;;;;;;20.49;34.00;101400.08;103539;1320;61834;-84
2022/03/06 00:56:14;;;;;;;;;;;;;;;;;;;;;
2022/03/06 00:58:53;;;;;;;;;;;;;;;20.49;34.14;101402.75;104147;1316;72666;-81
2022/03/06 01:01:36;;;;;;;;;;;;;;;20.49;34.04;101404.88;104171;1314;74649;-84
2022/03/06 01:04:34;;;;;;;;;;;;;;;;;;;;;
2022/03/06 01:07:22;;;;;;;;;;;;;;;20.49;33.92;101399.36;103638;1319;61318;-84
2022/03/06 01:09:51;;;;;;;;;;;;;;;20.49;33.90;101393.83;103375;1320;72820;-84
2022/03/06 01:12:33;;;;;;;;;;;;;;;20.49;33.97;101395.60;103617;1319;75901;-86
2022/03/06 01:15:19;;;;;;;;;;;;;;;20.49;34.10;101393.13;103309;1319;61454;-80
2022/03/06 01:18:07;;;;;;;;;;;;;;;20.49;33.98;101394.20;103411;1320;61348;-83
2022/03/06 01:20:38;;;;;;;;;;;;;;;20.49;34.03;101391.36;103576;1319;72982;-82
2022/03/06 01:23:32;;;;;;;;;;;;;;;20.48;33.97;101392.30;102729;1326;76166;-84
2022/03/06 01:26:31;;;;;;;;;;;;;;;20.48;33.95;101397.09;103009;1323;61274;-83
2022/03/06 01:29:09;;;;;;;;;;;;;;;;;;;;;
2022/03/06 01:32:12;;;;;;;;;;;;;;;20.48;33.99;101400.67;103081;1323;72724;-83
2022/03/06 01:34:39;;;;;;;;;;;;;;;20.48;33.97;101400.52;103033;1323;75415;-82
2022/03/06 01:37:14;;;;;;;;;;;;;;;20.48;33.93;101397.11;103070;1323;61249;-86
2022/03/06 01:39:43;;;;;;;;;;;;;;;20.48;33.96;101400.88;103057;1323;61500;-81
2022/03/06 01:42:18;;;;;;;;;;;;;;;20.48;33.92;101401.42;103592;1317;73406;-86
2022/03/06 01:45:08;;;;;;;;;;;;;;;20.48;33.74;101404.98;104036;1316;75250;-79
2022/03/06 01:47:54;;;;;;;;;;;;;;;20.47;33.92;101402.52;104031;1314;61599;-80
2022/03/06 01:50:40;;;;;;;;;;;;;;;;;;;;;
2022/03/06 01:53:31;;;;;;;;;;;;;;;20.47;33.77;101395.94;104037;1317;73737;-84
2022/03/06 01:56:16;;;;;;;;;;;;;;;20.47;33.88;101395.02;103223;1322;74735;-84
2022/03/06 01:59:02;;;;;;;;;;;;;;;20.47;33.92;101397.20;103208;1322;61046;-87
2022/03/06 02:01:46;;;;;;;;;;;;;;;20.47;33.76;101399.16;103982;1315;61190;-84
2022/03/06 02:04:26;;;;;;;;;;;;;;;;;;;;;
2022/03/06 02:06:59;;;;;;;;;;;;;;;20.47;33.94;101404.88;104238;1315;75826;-82
2022/03/06 02:09:34;;;;;;;;;;;;;;;20.46;33.90;101400.79;104291;1315;61175;-83
2022/03/06 02:15:11;;;;;;;;;;;;;;;20.46;34.09;101403.31;104281;1314;71972;-82
2022/03/06 02:17:57;;;;;;;;;;;;;;;20.46;33.85;101400.30;104181;1314;74930;-84
2022/03/06 02:20:41;;;;;;;;;;;;;;;;;;;;;
2022/03/06 02:23:24;;;;;;;;;;;;;;;;;;;;;
2022/03/06 02:26:08;;;;;;;;;;;;;;;20.45;33.85;101400.86;104242;1314;72774;-82
2022/03/06 02:29:04;;;;;;;;;;;;;;;20.45;33.83;101401.04;104302;1315;75673;-85
2022/03/06 02:31:50;;;;;;;;;;;;;;;20.45;34.00;101393.91;104292;1314;61378;-84
2022/03/06 02:34:47;;;;;;;;;;;;;;;20.45;33.95;101391.75;104131;1315;61287;-84
2022/03/06 02:37:36;;;;;;;;;;;;;;;20.45;33.85;101385.87;103368;1320;73010;-82
2022/03/06 02:40:17;;;;;;;;;;;;;;;20.45;33.81;101385.33;103386;1318;75396;-84
2022/03/06 02:42:51;;;;;;;;;;;;;;;20.44;34.04;101393.58;103600;1319;61250;-89
2022/03/06 02:45:18;;;;;;;;;;;;;;;20.45;33.91;101394.09;103612;1320;61203;-84
2022/03/06 02:48:09;;;;;;;;;;;;;;;20.45;33.79;101393.91;103628;1319;73068;-79
2022/03/06 02:50:46;;;;;;;;;;;;;;;20.44;33.74;101390.36;103037;1324;74692;-81
2022/03/06 02:53:22;;;;;;;;;;;;;;;20.44;33.75;101395.19;103040;1323;61421;-84
2022/03/06 02:56:03;;;;;;;;;;;;;;;20.44;33.98;101393.95;103071;1323;61218;-87
2022/03/06 02:58:29;;;;;;;;;;;;;;;20.44;33.82;101397.89;103013;1324;72817;-87
2022/03/06 03:01:07;;;;;;;;;;;;;;;;;;;;;
2022/03/06 03:03:58;;;;;;;;;;;;;;;;;;;;;
2022/03/06 03:06:29;;;;;;;;;;;;;;;20.43;33.82;101405.08;102903;1323;61304;-82
2022/03/06 03:09:04;;;;;;;;;;;;;;;20.43;33.88;101401.34;102754;1324;71695;-83
2022/03/06 03:11:42;;;;;;;;;;;;;;;20.42;33.90;101399.92;103176;1320;75280;-87
2022/03/06 03:14:21;;;;;;;;;;;;;;;20.42;33.67;101400.65;103590;1317;61296;-86
2022/03/06 03:16:56;;;;;;;;;;;;;;;20.42;33.80;101400.45;104088;1317;61277;-85
2022/03/06 03:19:21;;;;;;;;;;;;;;;20.42;33.86;101396.20;104077;1316;74260;-84
2022/03/06 03:22:07;;;;;;;;;;;;;;;20.42;33.86;101398.35;103843;1317;73581;-82
2022/03/06 03:25:02;;;;;;;;;;;;;;;20.42;33.59;101398.35;103745;1317;61217;-83
2022/03/06 03:27:38;;;;;;;;;;;;;;;20.41;33.74;101398.38;103869;1311;61213;-78
2022/03/06 03:30:14;;;;;;;;;;;;;;;20.41;33.74;101400.00;104552;1308;72824;-87
2022/03/06 03:32:59;;;;;;;;;;;;;;;20.41;33.69;101403.77;104569;1308;74858;-85
2022/03/06 03:35:56;;;;;;;;;;;;;;;20.41;33.67;101405.92;104370;1309;61688;-82
2022/03/06 03:38:22;;;;;;;;;;;;;;;20.41;33.74;101406.25;104464;1309;61169;-83
2022/03/06 03:41:04;;;;;;;;;;;;;;;;;;;;;
2022/03/06 03:43:33;;;;;;;;;;;;;;;20.41;33.79;101414.30;104455;1308;75867;-83
2022/03/06 03:46:30;;;;;;;;;;;;;;;20.41;33.75;101412.89;104529;1308;61249;-83
2022/03/06 03:48:58;;;;;;;;;;;;;;;20.41;33.64;101412.00;104499;1308;61341;-84
2022/03/06 03:51:51;;;;;;;;;;;;;;;20.41;33.73;101417.52;104540;1308;73801;-85
2022/03/06 03:54:29;;;;;;;;;;;;;;;20.41;33.72;101415.95;104541;1308;74103;-83
2022/03/06 03:57:13;;;;;;;;;;;;;;;20.41;33.81;101414.67;104569;1308;61329;-84
2022/03/06 03:59:48;;;;;;;;;;;;;;;20.40;33.63;101410.61;104430;1308;61251;-83
2022/03/06 04:02:43;;;;;;;;;;;;;;;20.40;33.65;101411.85;104538;1308;73928;-86
2022/03/06 04:05:13;;;;;;;;;;;;;;;20.40;33.70;101408.46;104065;1317;75885;-87
2022/03/06 04:07:58;;;;;;;;;;;;;;;20.40;33.60;101415.63;104030;1317;61370;-84
2022/03/06 04:10:37;;;;;;;;;;;;;;;20.40;33.73;101413.30;104104;1316;61880;-83
2022/03/06 04:13:25;;;;;;;;;;;;;;;20.40;33.69;101419.02;104069;1316;72724;-85
2022/03/06 04:16:01;;;;;;;;;;;;;;;20.41;33.70;101417.02;104066;1317;76252;-84
2022/03/06 04:18:40;;;;;;;;;;;;;;;20.40;33.72;101411.67;104042;1317;61426;-83
2022/03/06 04:21:08;;;;;;;;;;;;;;;20.40;33.69;101409.36;104096;1317;61335;-84
2022/03/06 04:24:16;;;;;;;;;;;;;;;20.40;33.69;101406.86;103084;1321;71515;-83
2022/03/06 04:27:02;;;;;;;;;;;;;;;20.39;33.68;101408.55;103024;1322;74823;-83
2022/03/06 04:29:37;;;;;;;;;;;;;;;20.39;33.65;101407.99;103091;1323;61508;-84
2022/03/06 04:32:12;;;;;;;;;;;;;;;20.39;33.61;101404.95;103095;1323;61234;-81
2022/03/06 04:34:58;;;;;;;;;;;;;;;;;;;;;
2022/03/06 04:38:01;;;;;;;;;;;;;;;20.39;33.72;101400.52;103022;1323;74849;-84
2022/03/06 04:40:38;;;;;;;;;;;;;;;20.39;33.65;101403.02;103123;1323;61365;-84
2022/03/06 04:43:18;;;;;;;;;;;;;;;;;;;;;
2022/03/06 04:45:51;;;;;;;;;;;;;;;20.39;33.54;101406.23;104046;1316;72687;-82
2022/03/06 04:48:43;;;;;;;;;;;;;;;20.39;33.71;101404.98;104023;1316;74979;-83
2022/03/06 04:51:32;;;;;;;;;;;;;;;20.39;33.55;101405.52;103362;1323;61396;-88
2022/03/06 04:54:18;;;;;;;;;;;;;;;20.39;33.67;101406.05;103340;1322;61034;-83
2022/03/06 04:57:02;;;;;;;;;;;;;;;20.39;33.63;101405.34;102806;1328;74026;-85
2022/03/06 04:59:58;;;;;;;;;;;;;;;20.39;33.61;101407.30;102690;1327;76062;-82
2022/03/06 05:02:53;;;;;;;;;;;;;;;20.39;33.63;101411.77;103145;1323;61468;-83
2022/03/06 05:05:38;;;;;;;;;;;;;;;20.39;33.63;101406.05;103218;1322;61350;-84
2022/03/06 05:08:28;;;;;;;;;;;;;;;20.38;33.66;101406.95;103082;1322;72780;-86
2022/03/06 05:11:08;;;;;;;;;;;;;;;20.39;33.64;101404.98;103251;1323;75237;-81
2022/03/06 05:13:57;;;;;;;;;;;;;;;20.39;33.66;101409.77;103047;1323;61723;-82
2022/03/06 05:17:03;;;;;;;;;;;;;;;20.40;33.68;101417.61;103214;1323;61443;-83
2022/03/06 05:19:32;;;;;;;;;;;;;;;20.40;33.60;101417.79;103221;1322;73443;-81
2022/03/06 05:22:19;;;;;;;;;;;;;;;;;;;;;
2022/03/06 05:25:09;;;;;;;;;;;;;;;20.40;33.64;101432.63;103188;1323;61295;-83
2022/03/06 05:27:47;;;;;;;;;;;;;;;20.40;33.60;101440.29;103285;1318;61315;-89
2022/03/06 05:30:21;;;;;;;;;;;;;;;20.40;33.61;101444.77;104078;1316;72646;-85
2022/03/06 05:33:27;;;;;;;;;;;;;;;20.40;33.41;101448.68;103767;1316;76320;-83
2022/03/06 05:35:58;;;;;;;;;;;;;;;20.40;33.46;101451.71;104544;1308;61322;-85
2022/03/06 05:38:48;;;;;;;;;;;;;;;20.41;33.55;101450.45;104483;1308;61239;-88
2022/03/06 05:41:25;;;;;;;;;;;;;;;20.41;33.51;101448.30;104445;1309;71831;-83
2022/03/06 05:43:59;;;;;;;;;;;;;;;20.40;33.70;101452.25;104437;1311;74596;-85
2022/03/06 05:46:48;;;;;;;;;;;;;;;20.41;33.64;101450.81;104439;1311;61225;-80
2022/03/06 05:49:23;;;;;;;;;;;;;;;20.41;33.54;101451.52;104434;1309;61140;-82
2022/03/06 05:51:56;;;;;;;;;;;;;;;20.41;33.48;101453.84;104435;1309;72604;-85
2022/03/06 05:54:44;;;;;;;;;;;;;;;20.41;33.55;101458.14;104527;1308;74852;-85
2022/03/06 05:57:18;;;;;;;;;;;;;;;20.41;33.52;101457.96;104483;1308;61254;-82
2022/03/06 05:59:55;;;;;;;;;;;;;;;20.40;33.60;101458.69;104451;1308;61332;-81
2022/03/06 06:02:50;;;;;;;;;;;;;;;20.41;33.61;101463.13;104450;1311;74196;-83
2022/03/06 06:05:24;;;;;;;;;;;;;;;20.41;33.45;101463.14;104410;1311;75886;-85
2022/03/06 06:07:58;;;;;;;;;;;;;;;20.41;33.53;101460.45;104395;1311;61283;-79
2022/03/06 06:10:36;;;;;;;;;;;;;;;20.40;33.61;101458.86;104457;1309;61395;-83
2022/03/06 06:13:06;;;;;;;;;;;;;;;20.41;33.61;101459.02;104450;1308;72739;-84
2022/03/06 06:15:43;;;;;;;;;;;;;;;20.40;33.35;101456.01;104476;1308;75794;-84
2022/03/06 06:18:31;;;;;;;;;;;;;;;20.40;33.36;101455.11;104532;1307;61182;-89
2022/03/06 06:21:16;;;;;;;;;;;;;;;20.40;33.36;101456.55;104455;1308;61248;-83
2022/03/06 06:24:02;;;;;;;;;;;;;;;20.41;33.41;101464.23;104451;1308;73937;-87
2022/03/06 06:26:41;;;;;;;;;;;;;;;20.41;33.63;101468.68;104532;1308;74850;-83
2022/03/06 06:29:25;;;;;;;;;;;;;;;;;;;;;
2022/03/06 06:32:00;;;;;;;;;;;;;;;20.40;33.57;101465.31;104475;1309;61588;-85
2022/03/06 06:34:33;;;;;;;;;;;;;;;20.40;33.25;101466.73;104406;1311;72727;-82
2022/03/06 06:37:08;;;;;;;;;;;;;;;20.40;33.50;101469.08;104535;1308;74814;-79
2022/03/06 06:40:02;;;;;;;;;;;;;;;20.41;33.29;101468.16;104538;1308;61218;-81
2022/03/06 06:42:42;;;;;;;;;;;;;;;;;;;;;
2022/03/06 06:45:15;;;;;;;;;;;;;;;20.41;33.33;101476.20;104521;1309;74193;-79
2022/03/06 06:47:58;;;;;;;;;;;;;;;20.40;33.37;101474.24;104197;1308;432868;-83
2022/03/06 06:50:33;;;;;;;;;;;;;;;20.41;33.29;101480.12;104545;1309;61225;-83
2022/03/06 06:53:21;;;;;;;;;;;;;;;20.41;33.42;101477.26;104458;1309;61257;-85
2022/03/06 06:56:13;;;;;;;;;;;;;;;20.41;33.34;101480.67;104499;1309;73797;-82
2022/03/06 06:59:07;;;;;;;;;;;;;;;20.41;33.39;101481.20;104202;1314;76897;-85
2022/03/06 07:01:55;;;;;;;;;;;;;;;20.41;33.45;101482.98;104237;1314;61331;-84
2022/03/06 07:04:47;;;;;;;;;;;;;;;20.41;33.47;101482.09;104222;1314;62067;-83
2022/03/06 07:07:21;;;;;;;;;;;;;;;20.41;33.32;101479.73;104212;1315;72888;-85
2022/03/06 07:10:07;;;;;;;;;;;;;;;20.42;33.31;101477.93;104200;1314;74843;-85
2022/03/06 07:12:46;;;;;;;;;;;;;;;20.42;33.22;101475.23;104209;1315;61315;-87
2022/03/06 07:15:26;;;;;;;;;;;;;;;;;;;;;
2022/03/06 07:18:12;;;;;;;;;;;;;;;20.42;33.26;101482.01;104230;1314;72985;-82
2022/03/06 07:20:38;;;;;;;;;;;;;;;20.42;33.34;101483.45;104116;1315;75794;-84
2022/03/06 07:23:34;;;;;;;;;;;;;;;20.42;33.14;101482.05;104206;1315;61329;-80
2022/03/06 07:26:08;;;;;;;;;;;;;;;20.41;33.34;101479.73;104236;1314;61473;-82
2022/03/06 07:28:46;;;;;;;;;;;;;;;20.41;33.32;101480.63;104232;1314;72814;-83
2022/03/06 07:31:24;;;;;;;;;;;;;;;20.41;33.23;101479.58;104227;1314;75731;-83
2022/03/06 07:34:10;;;;;;;;;;;;;;;20.41;33.27;101476.35;104249;1314;61296;-83
2022/03/06 07:37:15;;;;;;;;;;;;;;;20.41;33.38;101474.76;104468;1310;61268;-84
2022/03/06 07:39:53;;;;;;;;;;;;;;;;;;;;;
2022/03/06 07:42:29;;;;;;;;;;;;;;;20.42;33.47;101472.17;104532;1309;75631;-81
2022/03/06 07:45:16;;;;;;;;;;;;;;;20.42;33.27;101472.92;104450;1309;61381;-86
2022/03/06 07:47:53;;;;;;;;;;;;;;;20.42;33.35;101470.40;104482;1309;62238;-82
2022/03/06 07:50:34;;;;;;;;;;;;;;;;;;;;;
2022/03/06 07:53:16;;;;;;;;;;;;;;;20.42;33.31;101465.02;104646;1309;74937;-85
2022/03/06 07:55:42;;;;;;;;;;;;;;;20.42;33.21;101461.77;104640;1308;61184;-84
2022/03/06 07:58:07;;;;;;;;;;;;;;;20.43;33.20;101461.95;104510;1309;61332;-81
2022/03/06 08:00:35;;;;;;;;;;;;;;;20.43;33.37;101462.11;104446;1308;72826;-80
2022/03/06 08:03:34;;;;;;;;;;;;;;;;;;;;;
2022/03/06 08:06:14;;;;;;;;;;;;;;;20.43;33.17;101464.40;104540;1308;61315;-86
2022/03/06 08:08:43;;;;;;;;;;;;;;;20.44;33.24;101465.27;104636;1309;61193;-79
2022/03/06 08:11:48;;;;;;;;;;;;;;;20.44;33.16;101465.27;104617;1308;71539;-85
2022/03/06 08:14:34;;;;;;;;;;;;;;;20.44;33.24;101466.16;104592;1309;75643;-84
2022/03/06 08:17:10;;;;;;;;;;;;;;;20.44;33.29;101467.79;104628;1309;61392;-83
2022/03/06 08:19:46;;;;;;;;;;;;;;;20.45;33.17;101463.64;104549;1309;61357;-84
2022/03/06 08:22:21;;;;;;;;;;;;;;;20.45;33.17;101455.42;104630;1309;73660;-82
2022/03/06 08:25:00;;;;;;;;;;;;;;;20.45;33.16;101452.38;104519;1309;75820;-84
2022/03/06 08:28:06;;;;;;;;;;;;;;;20.44;33.15;101453.64;104424;1309;61308;-87
2022/03/06 08:30:41;;;;;;;;;;;;;;;20.45;33.18;101454.70;104438;1309;61173;-82
2022/03/06 08:33:24;;;;;;;;;;;;;;;20.45;33.21;101456.64;104612;1309;71795;-83
2022/03/06 08:36:02;;;;;;;;;;;;;;;20.45;33.17;101455.77;104630;1308;74845;-90
2022/03/06 08:38:49;;;;;;;;;;;;;;;;;;;;;
2022/03/06 08:41:18;;;;;;;;;;;;;;;20.45;33.15;101452.52;104542;1309;61752;-84
2022/03/06 08:43:56;;;;;;;;;;;;;;;20.46;33.11;101448.39;104645;1309;73795;-81
2022/03/06 08:46:49;;;;;;;;;;;;;;;20.46;33.18;101446.02;104598;1309;75682;-84
2022/03/06 08:49:45;;;;;;;;;;;;;;;20.46;33.33;101447.09;104609;1309;61250;-84
2022/03/06 08:52:29;;;;;;;;;;;;;;;20.46;33.28;101445.67;104649;1309;61265;-83
2022/03/06 08:55:09;;;;;;;;;;;;;;;20.46;33.22;101442.64;104199;1315;72778;-85
2022/03/06 08:58:06;;;;;;;;;;;;;;;20.47;33.05;101440.83;104158;1315;75003;-83
2022/03/06 09:00:40;;;;;;;;;;;;;;;20.47;33.13;101445.64;104200;1316;61303;-85
2022/03/06 09:03:21;;;;;;;;;;;;;;;20.47;33.10;101446.14;104219;1314;61824;-80
2022/03/06 09:06:01;;;;;;;;;;;;;;;20.48;33.15;101446.48;104140;1315;72213;-83
2022/03/06 09:09:11;;;;;;;;;;;;;;;20.48;33.10;101443.97;104050;1316;74888;-86
2022/03/06 09:12:12;;;;;;;;;;;;;;;;;;;;;
2022/03/06 09:14:38;;;;;;;;;;;;;;;20.48;33.02;101445.38;104080;1314;62072;-85
2022/03/06 09:17:31;;;;;;;;;;;;;;;20.48;33.24;101443.59;103965;1317;72779;-83
2022/03/06 09:20:14;;;;;;;;;;;;;;;;;;;;;
2022/03/06 09:22:49;;;;;;;;;;;;;;;20.48;33.01;101444.48;104043;1316;61334;-82
2022/03/06 09:25:46;;;;;;;;;;;;;;;20.48;33.04;101436.44;104241;1312;61204;-84
2022/03/06 09:28:59;;;;;;;;;;;;;;;20.48;32.96;101435.73;104451;1309;73884;-86
2022/03/06 09:31:27;;;;;;;;;;;;;;;20.49;33.01;101433.55;104517;1309;75731;-85
2022/03/06 09:34:21;;;;;;;;;;;;;;;20.49;33.05;101431.77;104626;1309;61371;-88
2022/03/06 09:36:49;;;;;;;;;;;;;;;20.49;33.11;101434.05;104657;1307;61725;-81
2022/03/06 09:39:37;;;;;;;;;;;;;;;;;;;;;
2022/03/06 09:42:06;;;;;;;;;;;;;;;20.49;33.12;101435.66;104541;1309;74833;-83
2022/03/06 09:44:45;;;;;;;;;;;;;;;20.50;33.11;101433.10;104625;1308;61216;-81
2022/03/06 09:47:33;;;;;;;;;;;;;;;20.50;33.18;101422.92;104547;1308;61303;-83
2022/03/06 09:50:18;;;;;;;;;;;;;;;20.50;33.09;101421.70;104105;1316;71825;-82
2022/03/06 09:53:04;;;;;;;;;;;;;;;20.50;33.09;101419.88;104221;1314;75613;-83
2022/03/06 09:55:49;;;;;;;;;;;;;;;20.50;32.93;101417.02;104223;1314;61478;-83
2022/03/06 09:58:42;;;;;;;;;;;;;;;20.50;32.97;101417.73;103236;1322;61199;-83
2022/03/06 10:01:15;;;;;;;;;;;;;;;20.50;32.93;101415.73;103364;1322;73980;-83
2022/03/06 10:04:31;;;;;;;;;;;;;;;20.51;33.02;101411.05;103207;1322;73660;-84
2022/03/06 10:10:23;;;;;;;;;;;;;;;20.51;33.08;101409.45;102463;1332;61414;-84
2022/03/06 10:13:45;;;;;;;;;;;;;;;;;;;;;
2022/03/06 10:16:36;;;;;;;;;;;;;;;20.51;33.08;101404.25;102450;1331;75855;-85
2022/03/06 10:19:04;;;;;;;;;;;;;;;20.52;33.09;101402.05;102063;1338;61525;-86
2022/03/06 10:22:08;;;;;;;;;;;;;;;20.53;33.06;101402.73;102021;1338;61683;-83
2022/03/06 10:24:48;;;;;;;;;;;;;;;20.52;33.05;101400.08;102092;1338;73070;-90
2022/03/06 10:27:34;;;;;;;;;;;;;;;20.54;33.09;101393.39;102228;1332;74843;-90
2022/03/06 10:30:21;;;;;;;;;;;;;;;20.53;33.05;101392.52;102456;1332;61368;-86
2022/03/06 10:33:10;;;;;;;;;;;;;;;20.53;33.10;101391.08;102563;1331;61562;-83
2022/03/06 10:35:46;;;;;;;;;;;;;;;20.53;33.00;101391.95;102726;1324;72954;-82
2022/03/06 10:38:25;;;;;;;;;;;;;;;20.53;32.96;101390.17;103257;1323;75735;-83
2022/03/06 10:41:21;;;;;;;;;;;;;;;20.53;32.94;101386.23;103429;1319;61265;-86
2022/03/06 10:43:51;;;;;;;;;;;;;;;20.53;32.88;101383.02;103587;1319;61181;-79
2022/03/06 10:46:34;;;;;;;;;;;;;;;20.53;32.93;101381.41;103413;1320;73659;-85
2022/03/06 10:49:07;;;;;;;;;;;;;;;20.53;32.86;101378.73;104147;1313;75009;-81
2022/03/06 10:51:47;;;;;;;;;;;;;;;20.53;33.01;101375.18;104070;1315;61356;-81
2022/03/06 10:54:18;;;;;;;;;;;;;;;20.53;33.02;101376.61;104067;1315;61487;-81
2022/03/06 10:56:54;;;;;;;;;;;;;;;20.53;33.00;101377.16;104237;1309;72656;-82
2022/03/06 10:59:49;;;;;;;;;;;;;;;20.53;33.20;101377.35;104268;1308;74500;-82
2022/03/06 11:02:20;;;;;;;;;;;;;;;20.53;32.96;101375.72;104315;1308;61311;-80
2022/03/06 11:04:53;;;;;;;;;;;;;;;20.53;33.12;101376.05;104243;1309;61706;-81
2022/03/06 11:07:22;;;;;;;;;;;;;;;20.53;33.00;101370.89;104310;1308;72807;-81
2022/03/06 11:09:58;;;;;;;;;;;;;;;20.53;32.92;101362.83;104291;1309;74708;-80
2022/03/06 11:12:33;;;;;;;;;;;;;;;20.53;33.18;101363.55;104426;1308;61245;-81
2022/03/06 11:15:08;;;;;;;;;;;;;;;20.53;33.10;101364.80;104407;1308;62078;-83
2022/03/06 11:17:57;;;;;;;;;;;;;;;20.53;33.00;101364.27;104415;1308;73724;-82
2022/03/06 11:20:25;;;;;;;;;;;;;;;20.52;33.04;101361.42;104380;1310;74782;-84
2022/03/06 11:23:05;;;;;;;;;;;;;;;20.52;33.05;101358.23;104454;1310;61172;-82
2022/03/06 11:25:34;;;;;;;;;;;;;;;20.52;33.03;101350.02;104376;1308;61715;-83
2022/03/06 11:28:26;;;;;;;;;;;;;;;20.51;33.16;101340.76;104304;1309;72707;-81
2022/03/06 11:31:07;;;;;;;;;;;;;;;20.52;33.19;101340.91;104395;1308;76229;-81
2022/03/06 11:33:45;;;;;;;;;;;;;;;20.52;33.17;101337.52;104426;1308;61189;-81
2022/03/06 11:36:37;;;;;;;;;;;;;;;20.52;33.07;101336.24;104453;1308;61289;-83
2022/03/06 11:39:13;;;;;;;;;;;;;;;20.53;32.83;101337.29;104081;1316;72754;-84
2022/03/06 11:41:49;;;;;;;;;;;;;;;;;;;;;
2022/03/06 11:47:37;;;;;;;;;;;;;;;20.51;33.00;101335.40;103955;1316;61167;-85
2022/03/06 11:50:28;;;;;;;;;;;;;;;20.51;32.88;101337.73;104103;1316;73852;-82
2022/03/06 11:52:53;;;;;;;;;;;;;;;20.51;32.83;101327.73;104060;1317;75213;-85
2022/03/06 11:55:36;;;;;;;;;;;;;;;20.51;32.94;101323.98;104005;1317;61276;-86
2022/03/06 11:58:40;;;;;;;;;;;;;;;20.51;32.99;101317.38;103923;1317;61952;-84
2022/03/06 12:01:24;;;;;;;;;;;;;;;20.51;32.80;101308.27;104052;1317;73496;-85
2022/03/06 12:04:18;;;;;;;;;;;;;;;20.51;33.04;101305.38;104095;1317;75562;-92
2022/03/06 12:06:45;;;;;;;;;;;;;;;20.51;32.87;101309.48;104109;1317;61308;-82
2022/03/06 12:09:33;;;;;;;;;;;;;;;20.51;33.02;101312.88;104119;1317;61292;-87
2022/03/06 12:12:02;;;;;;;;;;;;;;;20.51;32.97;101307.70;103687;1317;72645;-85
2022/03/06 12:14:53;;;;;;;;;;;;;;;;;;;;;
2022/03/06 12:17:47;;;;;;;;;;;;;;;20.51;32.93;101301.61;104403;1310;61276;-85
2022/03/06 12:20:29;;;;;;;;;;;;;;;20.51;32.89;101301.25;104531;1308;61168;-84
2022/03/06 12:23:06;;;;;;;;;;;;;;;20.51;32.91;101300.89;104478;1309;72707;-82
2022/03/06 12:25:52;;;;;;;;;;;;;;;20.51;32.90;101300.75;104465;1308;75742;-82
2022/03/06 12:28:25;;;;;;;;;;;;;;;20.51;33.01;101298.57;104512;1309;61388;-83
2022/03/06 12:30:59;;;;;;;;;;;;;;;20.50;32.94;101297.19;104447;1311;61320;-85
2022/03/06 12:33:55;;;;;;;;;;;;;;;20.51;33.03;101293.27;104456;1309;71614;-85
2022/03/06 12:36:53;;;;;;;;;;;;;;;20.51;32.96;101290.90;104465;1308;74806;-85
2022/03/06 12:39:37;;;;;;;;;;;;;;;;;;;;;
2022/03/06 12:42:13;;;;;;;;;;;;;;;;;;;;;
2022/03/06 12:44:53;;;;;;;;;;;;;;;20.50;32.83;101278.80;104342;1311;72727;-84
2022/03/06 12:47:39;;;;;;;;;;;;;;;20.50;32.83;101277.36;104353;1311;74714;-84
2022/03/06 12:50:26;;;;;;;;;;;;;;;20.50;32.98;101277.36;104356;1311;61324;-83
2022/03/06 12:53:07;;;;;;;;;;;;;;;20.51;33.05;101275.19;104346;1311;61330;-87
2022/03/06 12:55:39;;;;;;;;;;;;;;;20.50;32.91;101272.38;104320;1313;73708;-87
2022/03/06 12:58:23;;;;;;;;;;;;;;;20.50;33.09;101269.31;104343;1312;74624;-82
2022/03/06 13:00:59;;;;;;;;;;;;;;;;;;;;;
2022/03/06 13:03:48;;;;;;;;;;;;;;;20.50;32.89;101269.31;104260;1311;61279;-82
2022/03/06 13:06:24;;;;;;;;;;;;;;;;;;;;;
2022/03/06 13:09:01;;;;;;;;;;;;;;;20.50;32.93;101260.94;104315;1311;75838;-86
2022/03/06 13:11:47;;;;;;;;;;;;;;;20.50;33.10;101261.14;104370;1311;61168;-83
2022/03/06 13:14:26;;;;;;;;;;;;;;;;;;;;;
2022/03/06 13:17:13;;;;;;;;;;;;;;;20.50;32.89;101254.52;104474;1308;71836;-84
2022/03/06 13:19:59;;;;;;;;;;;;;;;;;;;;;
2022/03/06 13:22:49;;;;;;;;;;;;;;;20.50;33.02;101255.94;104506;1308;61136;-80
2022/03/06 13:26:17;;;;;;;;;;;;;;;20.49;32.90;101252.58;104543;1308;61728;-85
2022/03/06 13:28:43;;;;;;;;;;;;;;;20.49;32.93;101251.66;104473;1308;72892;-85
2022/03/06 13:31:18;;;;;;;;;;;;;;;20.49;32.90;101250.77;104489;1309;74875;-81
2022/03/06 13:34:05;;;;;;;;;;;;;;;20.49;33.11;101248.27;104643;1309;61249;-86
2022/03/06 13:36:50;;;;;;;;;;;;;;;20.49;33.13;101244.70;104628;1308;60351;-82
2022/03/06 13:39:25;;;;;;;;;;;;;;;20.50;33.15;101244.15;104619;1309;73883;-83
2022/03/06 13:42:31;;;;;;;;;;;;;;;20.49;32.97;101238.27;104547;1309;75248;-87
2022/03/06 13:45:30;;;;;;;;;;;;;;;20.49;33.29;101236.84;104625;1309;61164;-84
2022/03/06 13:48:07;;;;;;;;;;;;;;;20.49;33.17;101238.98;104631;1309;61609;-80
2022/03/06 13:50:40;;;;;;;;;;;;;;;20.49;33.03;101234.52;104521;1308;72744;-85
2022/03/06 13:53:15;;;;;;;;;;;;;;;20.49;33.15;101236.48;104527;1309;75178;-82
2022/03/06 13:55:59;;;;;;;;;;;;;;;;;;;;;
2022/03/06 13:58:43;;;;;;;;;;;;;;;20.50;33.15;101235.21;104532;1309;61129;-84
2022/03/06 14:01:28;;;;;;;;;;;;;;;20.50;33.28;101234.50;104474;1308;72861;-83
2022/03/06 14:04:16;;;;;;;;;;;;;;;20.49;33.11;101225.43;104525;1309;74899;-83
2022/03/06 14:07:00;;;;;;;;;;;;;;;20.50;33.04;101223.22;104544;1309;61190;-83
2022/03/06 14:09:35;;;;;;;;;;;;;;;20.49;33.12;101228.11;104630;1309;61272;-86
2022/03/06 14:12:20;;;;;;;;;;;;;;;20.49;33.02;101222.71;104525;1309;72771;-87
2022/03/06 14:15:04;;;;;;;;;;;;;;;20.49;33.23;101224.35;104627;1309;74739;-82
2022/03/06 14:17:36;;;;;;;;;;;;;;;20.50;33.12;101223.22;104536;1308;61173;-85
2022/03/06 14:20:34;;;;;;;;;;;;;;;20.49;33.04;101223.96;104649;1308;61176;-87
2022/03/06 14:23:22;;;;;;;;;;;;;;;20.50;33.19;101226.08;104552;1308;72702;-83
2022/03/06 14:26:13;;;;;;;;;;;;;;;20.50;33.15;101217.30;104349;1309;75068;-83
2022/03/06 14:29:09;;;;;;;;;;;;;;;20.51;33.15;101215.45;104549;1309;61391;-84
2022/03/06 14:31:55;;;;;;;;;;;;;;;20.51;33.14;101213.48;104232;1314;61346;-84
2022/03/06 14:34:34;;;;;;;;;;;;;;;20.51;33.20;101213.11;104221;1314;73944;-88
2022/03/06 14:37:02;;;;;;;;;;;;;;;20.51;32.92;101207.92;104215;1314;76407;-83
2022/03/06 14:40:01;;;;;;;;;;;;;;;20.51;33.24;101208.10;104212;1314;61516;-85